Time;durP1;ratioP1;P1;durP2;ratioP2;P2;SDS_P1;SDS_P2;PMS_P1;PMS_P2;Temp;Humidity;BMP_temperature;BMP_pressure;BME280_temperature;BME280_humidity;BME280_pressure;Samples;Min_cycle;Max_cycle;Signal;HPM_P1;HPM_P2
2021/08/30 00:01:52;;;;;;;22.35;11.43;;;;;;;17.81;72.04;99074.06;4751215;30;20060;-60
2021/08/30 00:04:18;;;;;;;20.10;11.27;;;;;;;17.80;71.93;99077.84;4751061;30;20067;-63
2021/08/30 00:06:44;;;;;;;23.17;11.25;;;;;;;17.77;71.73;99071.13;4751122;30;20044;-60
2021/08/30 00:09:10;;;;;;;17.92;10.95;;;;;;;17.75;72.23;99076.00;4750843;30;20052;-61
2021/08/30 00:11:36;;;;;;;16.58;10.68;;;;;;;17.73;72.27;99080.03;4720652;30;20068;-62
2021/08/30 00:14:02;;;;;;;19.42;11.75;;;;;;;17.71;72.47;99077.66;4750927;30;20430;-63
2021/08/30 00:16:28;;;;;;;23.50;11.00;;;;;;;17.72;73.01;99089.97;4750870;30;20202;-61
2021/08/30 00:18:54;;;;;;;15.18;10.63;;;;;;;17.73;73.45;99085.41;4750827;30;20091;-62
2021/08/30 00:21:21;;;;;;;14.70;10.20;;;;;;;17.70;72.57;99076.84;4734845;30;20056;-61
2021/08/30 00:23:47;;;;;;;19.75;10.00;;;;;;;17.67;72.98;99082.00;4750230;30;20052;-61
2021/08/30 00:26:12;;;;;;;17.60;10.85;;;;;;;17.61;73.03;99067.88;4750702;30;20052;-61
2021/08/30 00:28:40;;;;;;;19.17;11.32;;;;;;;17.61;73.65;99062.53;4751087;30;20059;-62
2021/08/30 00:31:15;;;;;;;18.45;11.27;;;;;;;17.56;73.66;99069.84;4750711;30;20651;-62
2021/08/30 00:33:41;;;;;;;19.30;11.73;;;;;;;17.53;73.87;99065.06;4750970;30;20058;-62
2021/08/30 00:36:07;;;;;;;26.23;10.82;;;;;;;17.43;74.10;99064.13;4734740;30;20126;-61
2021/08/30 00:38:33;;;;;;;21.48;11.50;;;;;;;17.41;74.39;99066.31;4750624;30;20143;-61
2021/08/30 00:40:59;;;;;;;21.85;11.70;;;;;;;17.36;74.60;99070.94;4750596;30;20055;-61
2021/08/30 00:43:25;;;;;;;18.83;12.07;;;;;;;17.36;74.42;99066.38;4750543;30;20044;-60
2021/08/30 00:45:51;;;;;;;18.23;11.88;;;;;;;17.32;74.93;99059.19;4749703;30;20109;-63
2021/08/30 00:48:18;;;;;;;20.30;12.65;;;;;;;17.25;75.29;99060.38;4750360;30;20084;-62
2021/08/30 00:50:44;;;;;;;20.65;12.90;;;;;;;17.25;75.16;99057.69;4737346;30;20044;-60
2021/08/30 00:53:09;;;;;;;19.38;13.13;;;;;;;17.21;75.09;99055.88;4723804;30;20098;-61
2021/08/30 00:55:36;;;;;;;25.83;16.27;;;;;;;17.20;75.43;99059.63;4754349;30;20048;-62
2021/08/30 00:58:05;;;;;;;24.77;16.35;;;;;;;17.18;75.77;99059.94;4754307;30;20059;-61
2021/08/30 01:00:30;;;;;;;27.70;16.83;;;;;;;17.16;75.64;99048.72;4754181;30;20048;-61
2021/08/30 01:02:56;;;;;;;26.38;15.48;;;;;;;17.13;76.05;99046.59;4737948;30;20055;-62
2021/08/30 01:05:22;;;;;;;20.58;13.88;;;;;;;17.11;76.35;99048.78;4754163;30;20044;-61
2021/08/30 01:07:59;;;;;;;24.95;13.82;;;;;;;17.06;76.90;99053.41;4738023;30;20548;-61
2021/08/30 01:10:57;;;;;;;20.45;13.82;;;;;;;17.00;76.98;99056.16;4738049;30;20101;-61
2021/08/30 01:13:33;;;;;;;20.75;14.02;;;;;;;16.96;77.27;99044.41;4723476;30;20084;-61
2021/08/30 01:16:02;;;;;;;19.92;12.38;;;;;;;16.92;77.57;99042.63;4738133;30;20052;-62
2021/08/30 01:18:31;;;;;;;22.67;11.93;;;;;;;16.87;77.88;99034.63;4738158;30;20158;-61
2021/08/30 01:21:32;;;;;;;22.70;12.85;;;;;;;16.81;78.58;99044.59;4738227;30;20064;-60
2021/08/30 01:24:14;;;;;;;22.65;13.15;;;;;;;16.77;78.63;99043.59;4754011;30;20190;-62
2021/08/30 01:26:42;;;;;;;20.85;12.38;;;;;;;16.71;79.40;99045.50;4737810;30;20138;-62
2021/08/30 01:29:21;;;;;;;25.65;13.60;;;;;;;16.68;79.21;99050.63;4752357;30;20048;-61
2021/08/30 01:31:55;;;;;;;18.58;12.93;;;;;;;16.60;79.66;99041.34;4737840;30;20048;-62
2021/08/30 01:34:23;;;;;;;18.00;12.65;;;;;;;16.48;80.16;99035.59;4753696;30;20147;-61
2021/08/30 01:36:50;;;;;;;23.05;13.40;;;;;;;16.54;80.05;99061.22;4737516;30;20064;-61
2021/08/30 01:39:16;;;;;;;19.67;12.82;;;;;;;16.51;80.35;99053.75;4737631;30;20051;-62
2021/08/30 01:41:43;;;;;;;20.25;12.60;;;;;;;16.51;80.44;99062.59;4737369;30;20528;-61
2021/08/30 01:44:09;;;;;;;19.50;12.45;;;;;;;16.50;80.42;99052.16;4753226;30;20075;-62
2021/08/30 01:46:36;;;;;;;22.48;13.48;;;;;;;16.47;80.23;99050.88;4752216;30;20461;-60
2021/08/30 01:49:04;;;;;;;21.50;13.18;;;;;;;16.44;80.42;99047.94;4753445;30;20044;-61
2021/08/30 01:51:30;;;;;;;18.90;11.95;;;;;;;16.40;80.17;99053.06;4753204;30;20495;-62
2021/08/30 01:53:58;;;;;;;23.10;13.15;;;;;;;16.37;80.75;99044.81;4722988;30;20515;-60
2021/08/30 01:56:26;;;;;;;24.10;13.38;;;;;;;16.34;80.39;99052.31;4737429;30;20052;-61
2021/08/30 02:01:38;;;;;;;19.60;12.43;;;;;;;16.32;80.77;99046.47;4752341;30;20052;-62
2021/08/30 02:04:04;;;;;;;24.30;13.23;;;;;;;16.26;80.92;99038.78;4752954;30;20189;-62
2021/08/30 02:06:31;;;;;;;20.75;13.27;;;;;;;16.28;80.78;99031.25;4737053;30;20052;-62
2021/08/30 02:08:58;;;;;;;31.73;15.07;;;;;;;16.26;80.72;99036.88;4737206;30;20056;-61
2021/08/30 02:11:42;;;;;;;21.08;13.57;;;;;;;16.25;80.75;99042.53;4736943;30;20511;-61
2021/08/30 02:14:07;;;;;;;23.52;13.18;;;;;;;16.23;80.97;99050.03;4752756;30;20100;-62
2021/08/30 02:16:34;;;;;;;22.33;12.95;;;;;;;16.20;80.69;99054.06;4752983;30;20060;-60
2021/08/30 02:19:08;;;;;;;19.13;13.45;;;;;;;16.13;81.38;99053.59;4736696;30;20487;-61
2021/08/30 02:21:51;;;;;;;22.70;13.38;;;;;;;16.09;81.43;99057.94;4752986;30;20056;-63
2021/08/30 02:24:26;;;;;;;20.60;13.00;;;;;;;16.06;81.51;99053.94;4736833;30;20114;-61
2021/08/30 02:27:15;;;;;;;21.13;12.70;;;;;;;15.99;81.06;99042.75;4752721;30;20056;-61
2021/08/30 02:29:49;;;;;;;20.27;12.48;;;;;;;16.01;81.47;99053.97;4707855;30;20056;-61
2021/08/30 02:32:16;;;;;;;25.38;13.25;;;;;;;16.01;81.48;99053.19;4736683;30;20508;-61
2021/08/30 02:34:46;;;;;;;21.25;13.35;;;;;;;16.03;81.60;99054.50;4752710;30;20055;-61
2021/08/30 02:37:11;;;;;;;;;;;;;;;16.03;81.50;99057.19;4736980;30;20102;-61
2021/08/30 02:39:38;;;;;;;22.15;13.25;;;;;;;16.03;81.44;99054.50;4766077;30;19957;-62
2021/08/30 02:42:05;;;;;;;19.92;13.07;;;;;;;16.06;81.40;99053.13;4736611;30;20056;-61
2021/08/30 02:44:32;;;;;;;22.17;13.07;;;;;;;16.02;81.23;99042.19;4736245;30;20109;-61
2021/08/30 02:47:00;;;;;;;21.55;12.57;;;;;;;16.15;81.15;99053.31;4735978;30;20052;-61
2021/08/30 02:49:26;;;;;;;19.00;12.43;;;;;;;16.17;80.91;99062.66;4736028;30;20047;-61
2021/08/30 02:51:53;;;;;;;18.55;12.52;;;;;;;16.22;80.73;99072.50;4721382;30;20052;-61
2021/08/30 02:54:19;;;;;;;23.20;13.45;;;;;;;16.28;80.38;99076.72;4722091;30;20424;-62
2021/08/30 02:56:45;;;;;;;20.13;12.50;;;;;;;16.32;80.31;99089.28;4736132;30;20063;-61
2021/08/30 02:59:12;;;;;;;20.30;12.00;;;;;;;16.38;79.87;99099.91;4752214;30;20044;-62
2021/08/30 03:01:38;;;;;;;21.25;12.10;;;;;;;16.43;79.88;99127.41;4736406;30;20079;-61
2021/08/30 03:04:04;;;;;;;26.85;13.35;;;;;;;16.44;79.91;99161.13;4752183;30;20048;-62
2021/08/30 03:06:30;;;;;;;24.15;15.50;;;;;;;16.48;79.53;99142.63;4751792;30;20485;-61
2021/08/30 03:08:56;;;;;;;23.15;13.60;;;;;;;16.54;79.47;99153.00;4735949;30;20064;-62
2021/08/30 03:11:23;;;;;;;31.38;15.25;;;;;;;16.64;78.84;99137.91;4735942;30;20052;-61
2021/08/30 03:13:50;;;;;;;23.38;14.80;;;;;;;16.69;78.58;99129.84;4735802;30;20055;-61
2021/08/30 03:16:16;;;;;;;25.45;15.10;;;;;;;16.77;78.26;99137.28;4735685;30;20189;-61
2021/08/30 03:18:43;;;;;;;28.20;16.30;;;;;;;16.80;77.53;99126.78;4751609;30;20519;-60
2021/08/30 03:21:09;;;;;;;29.17;15.50;;;;;;;16.87;77.39;99131.81;4750757;30;20131;-61
2021/08/30 03:23:40;;;;;;;28.80;14.98;;;;;;;16.93;77.20;99130.66;4751570;30;20143;-61
2021/08/30 03:26:06;;;;;;;21.85;14.48;;;;;;;16.99;76.79;99140.22;4735980;30;20044;-62
2021/08/30 03:28:33;;;;;;;27.52;15.73;;;;;;;17.06;76.46;99137.22;4735961;30;20139;-65
2021/08/30 03:31:00;;;;;;;28.70;14.82;;;;;;;17.14;76.10;99149.16;4735520;30;20044;-61
2021/08/30 03:33:27;;;;;;;32.03;14.95;;;;;;;17.19;75.92;99151.78;4735298;30;20056;-61
2021/08/30 03:35:53;;;;;;;27.83;15.52;;;;;;;17.18;75.56;99153.69;4735814;30;20127;-61
2021/08/30 03:38:21;;;;;;;27.48;14.77;;;;;;;17.25;75.86;99156.00;4735737;30;20052;-61
2021/08/30 03:40:49;;;;;;;26.67;14.40;;;;;;;17.29;76.07;99172.28;4735457;30;20411;-61
2021/08/30 03:43:16;;;;;;;30.75;14.57;;;;;;;17.30;76.66;99169.34;4751630;30;20052;-61
2021/08/30 03:45:42;;;;;;;26.73;14.88;;;;;;;17.30;76.80;99157.84;4751335;30;20097;-62
2021/08/30 03:48:09;;;;;;;23.02;13.85;;;;;;;17.33;77.63;99154.56;4751557;30;20055;-61
2021/08/30 03:50:35;;;;;;;30.00;14.35;;;;;;;17.32;78.04;99152.97;4735433;30;20056;-61
2021/08/30 03:53:01;;;;;;;21.90;14.80;;;;;;;17.30;78.98;99155.94;4735462;30;20075;-60
2021/08/30 03:55:27;;;;;;;22.98;14.93;;;;;;;17.28;79.22;99144.72;4735465;30;20063;-60
2021/08/30 03:57:56;;;;;;;22.20;14.15;;;;;;;17.24;79.77;99141.03;4735510;30;20044;-60
2021/08/30 04:00:22;;;;;;;24.33;15.73;;;;;;;17.21;81.01;99130.88;4735822;30;20052;-61
2021/08/30 04:02:49;;;;;;;24.48;14.30;;;;;;;17.14;80.75;99125.06;4751326;30;20539;-61
2021/08/30 04:05:18;;;;;;;26.55;14.77;;;;;;;17.10;82.80;99124.84;4720445;30;20550;-61
2021/08/30 04:07:45;;;;;;;;;;;;;;;17.09;82.21;99119.75;4735878;30;20539;-61
2021/08/30 04:10:11;;;;;;;29.98;16.77;;;;;;;17.07;83.87;99117.38;4764464;30;19930;-61
2021/08/30 04:12:37;;;;;;;28.20;17.75;;;;;;;17.09;84.14;99106.38;4750834;30;20052;-61
2021/08/30 04:15:03;;;;;;;27.63;16.67;;;;;;;17.07;83.58;99106.69;4734790;30;20052;-61
2021/08/30 04:17:29;;;;;;;33.40;17.65;;;;;;;17.08;84.34;99080.69;4734831;30;20056;-61
2021/08/30 04:19:55;;;;;;;27.38;17.65;;;;;;;17.06;83.77;99083.66;4750826;30;20068;-61
2021/08/30 04:22:20;;;;;;;28.65;17.05;;;;;;;16.97;83.43;99094.22;4734911;30;20048;-61
2021/08/30 04:24:46;;;;;;;27.60;15.98;;;;;;;16.89;83.19;99088.69;4734744;30;20048;-63
2021/08/30 04:27:12;;;;;;;23.38;15.00;;;;;;;16.85;84.14;99091.13;4734675;30;20146;-61
2021/08/30 04:29:38;;;;;;;26.17;16.45;;;;;;;16.79;84.05;99081.56;4750793;30;20059;-61
2021/08/30 04:32:07;;;;;;;28.15;17.35;;;;;;;16.80;84.33;99086.66;4734637;30;20056;-60
2021/08/30 04:34:34;;;;;;;31.65;18.20;;;;;;;16.87;84.48;99093.53;4750922;30;20063;-60
2021/08/30 04:37:00;;;;;;;33.33;19.77;;;;;;;16.92;84.64;99102.31;4734962;30;20058;-61
2021/08/30 04:39:25;;;;;;;27.02;17.55;;;;;;;16.92;83.00;99115.69;4720146;30;20138;-62
2021/08/30 04:41:51;;;;;;;26.08;15.48;;;;;;;16.92;83.18;99117.56;4750447;30;20542;-60
2021/08/30 04:44:17;;;;;;;26.50;15.88;;;;;;;16.94;83.83;99113.53;4750379;30;20534;-60
2021/08/30 04:46:43;;;;;;;27.20;15.77;;;;;;;16.95;83.96;99112.44;4750400;30;20055;-61
2021/08/30 04:49:09;;;;;;;23.95;15.32;;;;;;;16.96;83.28;99121.25;4734808;30;20055;-61
2021/08/30 04:51:35;;;;;;;27.20;16.15;;;;;;;16.93;83.21;99109.25;4750361;30;20344;-61
2021/08/30 04:54:01;;;;;;;28.77;16.35;;;;;;;16.93;83.88;99122.63;4750222;30;20175;-62
2021/08/30 04:56:26;;;;;;;26.20;16.08;;;;;;;16.95;83.82;99112.44;4734188;30;20047;-61
2021/08/30 04:58:52;;;;;;;27.90;17.75;;;;;;;16.97;83.34;99104.09;4744993;30;20372;-62
2021/08/30 05:01:18;;;;;;;28.02;19.55;;;;;;;17.02;84.96;99098.69;4748953;30;20143;-61
2021/08/30 05:03:44;;;;;;;24.60;16.48;;;;;;;16.99;83.80;99091.25;4734526;30;20056;-61
2021/08/30 05:06:10;;;;;;;26.15;15.07;;;;;;;17.00;83.90;99104.34;4749718;30;20143;-60
2021/08/30 05:08:36;;;;;;;24.02;13.70;;;;;;;16.97;84.26;99104.09;4734001;30;20167;-61
2021/08/30 05:11:02;;;;;;;23.05;13.75;;;;;;;16.99;83.22;99101.94;4749975;30;20178;-60
2021/08/30 05:13:28;;;;;;;25.67;15.32;;;;;;;17.03;83.68;99097.63;4733539;30;20048;-60
2021/08/30 05:15:54;;;;;;;24.17;15.45;;;;;;;17.01;83.63;99095.22;4750167;30;20056;-61
2021/08/30 05:18:20;;;;;;;26.88;16.33;;;;;;;17.01;83.50;99089.88;4750467;30;20105;-60
2021/08/30 05:20:49;;;;;;;28.60;16.65;;;;;;;16.98;83.91;99084.31;4733977;30;20048;-61
2021/08/30 05:23:18;;;;;;;25.08;15.43;;;;;;;16.95;83.78;99076.84;4734426;30;20055;-60
2021/08/30 05:25:44;;;;;;;28.02;15.90;;;;;;;16.91;83.96;99067.78;4749768;30;20550;-60
2021/08/30 05:28:10;;;;;;;27.85;16.55;;;;;;;16.86;84.13;99055.25;4749604;30;20076;-60
2021/08/30 05:30:36;;;;;;;26.25;16.05;;;;;;;16.82;84.66;99050.75;4749595;30;20476;-61
2021/08/30 05:33:03;;;;;;;24.88;15.20;;;;;;;16.80;84.31;99046.50;4750233;30;20438;-60
2021/08/30 05:35:29;;;;;;;26.00;16.40;;;;;;;16.83;84.78;99053.16;4750465;30;20063;-60
2021/08/30 05:37:54;;;;;;;24.67;15.02;;;;;;;16.84;84.84;99045.91;4751962;30;20115;-61
2021/08/30 05:40:20;;;;;;;25.77;16.20;;;;;;;16.89;84.81;99043.97;4737186;30;20048;-61
2021/08/30 05:42:46;;;;;;;25.90;15.95;;;;;;;16.93;84.46;99046.88;4751240;30;20079;-59
2021/08/30 05:45:12;;;;;;;24.88;15.75;;;;;;;16.99;84.36;99049.19;4753124;30;20498;-61
2021/08/30 05:47:38;;;;;;;25.45;17.02;;;;;;;17.00;84.42;99048.13;4753254;30;20052;-62
2021/08/30 05:50:04;;;;;;;24.92;16.30;;;;;;;17.08;84.36;99065.41;4707850;30;20052;-60
2021/08/30 05:52:30;;;;;;;27.02;17.83;;;;;;;17.10;84.22;99062.47;4736811;30;20040;-60
2021/08/30 05:54:56;;;;;;;25.30;18.52;;;;;;;17.08;84.53;99054.69;4736870;30;20052;-61
2021/08/30 05:57:22;;;;;;;29.48;16.48;;;;;;;17.10;84.29;99059.78;4750993;30;20114;-61
2021/08/30 05:59:47;;;;;;;27.50;17.02;;;;;;;17.17;83.74;99052.97;4752997;30;20074;-60
2021/08/30 06:02:13;;;;;;;24.17;16.50;;;;;;;17.18;83.85;99051.91;4722096;30;20488;-60
2021/08/30 06:04:39;;;;;;;26.17;16.58;;;;;;;17.24;83.54;99050.75;4752710;30;20048;-60
2021/08/30 06:07:06;;;;;;;20.02;14.85;;;;;;;17.24;83.48;99061.47;4750536;30;20135;-59
2021/08/30 06:09:32;;;;;;;25.70;16.08;;;;;;;17.30;83.31;99066.75;4706399;30;20103;-59
2021/08/30 06:11:58;;;;;;;29.27;16.35;;;;;;;17.29;83.37;99079.31;4751730;30;20338;-59
2021/08/30 06:14:24;;;;;;;27.15;16.48;;;;;;;17.40;83.37;99088.03;4752205;30;20462;-61
2021/08/30 06:16:50;;;;;;;27.35;16.83;;;;;;;17.40;83.21;99093.38;4752355;30;20047;-60
2021/08/30 06:19:15;;;;;;;24.35;15.75;;;;;;;17.35;82.78;99088.88;4752173;30;20048;-60
2021/08/30 06:21:41;;;;;;;29.85;16.52;;;;;;;17.34;82.66;99086.50;4752182;30;20105;-58
2021/08/30 06:24:07;;;;;;;25.70;16.77;;;;;;;17.39;82.77;99087.25;4752190;30;20040;-61
2021/08/30 06:26:36;;;;;;;24.50;16.63;;;;;;;17.54;82.61;99083.53;4742138;30;20556;-59
2021/08/30 06:29:03;;;;;;;28.35;16.73;;;;;;;17.76;82.38;99084.81;4746087;30;20048;-59
2021/08/30 06:31:29;;;;;;;26.02;16.10;;;;;;;17.78;80.68;99086.16;4742953;30;20044;-61
2021/08/30 06:33:56;;;;;;;23.63;15.10;;;;;;;17.84;80.51;99085.00;4747078;30;20060;-63
2021/08/30 06:36:22;;;;;;;28.50;16.13;;;;;;;17.96;80.41;99095.25;4732985;30;20059;-60
2021/08/30 06:38:48;;;;;;;25.00;15.10;;;;;;;17.95;80.19;99091.00;4748441;30;20154;-61
2021/08/30 06:41:17;;;;;;;23.08;14.73;;;;;;;17.96;80.27;99102.50;4744848;30;20048;-58
2021/08/30 06:43:46;;;;;;;22.23;15.02;;;;;;;17.97;80.64;99104.09;4746356;30;20460;-61
2021/08/30 06:46:12;;;;;;;22.13;15.80;;;;;;;17.96;80.24;99111.34;4750416;30;20127;-60
2021/08/30 06:48:37;;;;;;;25.25;15.95;;;;;;;17.93;80.10;99112.72;4731545;30;20154;-59
2021/08/30 06:51:04;;;;;;;26.77;14.52;;;;;;;17.90;80.39;99097.22;4748729;30;20127;-60
2021/08/30 06:53:29;;;;;;;23.40;15.80;;;;;;;17.91;80.52;99098.00;4747429;30;20055;-59
2021/08/30 06:55:56;;;;;;;24.30;15.23;;;;;;;17.96;79.99;99105.97;4747077;30;20195;-60
2021/08/30 06:58:21;;;;;;;23.67;14.25;;;;;;;18.03;80.23;99109.09;4749197;30;20044;-59
2021/08/30 07:00:48;;;;;;;23.33;14.35;;;;;;;17.98;80.22;99116.44;4749836;30;20522;-61
2021/08/30 07:03:14;;;;;;;25.95;15.57;;;;;;;17.99;79.76;99128.75;4749243;30;20146;-61
2021/08/30 07:05:40;;;;;;;26.25;16.38;;;;;;;18.07;80.46;99134.25;4731788;30;20135;-60
2021/08/30 07:08:06;;;;;;;22.38;15.60;;;;;;;18.18;79.38;99137.56;4747166;30;20064;-60
2021/08/30 07:10:32;;;;;;;25.05;16.00;;;;;;;18.25;78.95;99146.00;4746261;30;20060;-61
2021/08/30 07:12:58;;;;;;;27.33;16.27;;;;;;;18.28;78.80;99150.78;4747765;30;20357;-60
2021/08/30 07:15:23;;;;;;;27.02;17.30;;;;;;;18.26;78.41;99150.28;4748779;30;20056;-60
2021/08/30 07:17:49;;;;;;;26.23;15.88;;;;;;;18.23;77.89;99142.81;4748538;30;20471;-60
2021/08/30 07:20:15;;;;;;;26.38;16.48;;;;;;;18.24;78.05;99138.28;4747220;30;20130;-61
2021/08/30 07:22:41;;;;;;;26.58;15.75;;;;;;;18.33;77.29;99157.97;4733284;30;20040;-61
2021/08/30 07:25:07;;;;;;;28.13;16.25;;;;;;;18.34;77.38;99151.50;4748559;30;20052;-61
2021/08/30 07:27:33;;;;;;;25.15;16.20;;;;;;;18.35;77.01;99147.72;4731107;30;20044;-63
2021/08/30 07:29:59;;;;;;;33.03;16.65;;;;;;;18.37;77.14;99142.88;4748364;30;20831;-62
2021/08/30 07:32:25;;;;;;;28.33;16.95;;;;;;;18.52;76.37;99145.28;4730782;30;20428;-60
2021/08/30 07:34:51;;;;;;;27.63;16.52;;;;;;;18.61;76.18;99140.03;4747778;30;20101;-62
2021/08/30 07:37:17;;;;;;;23.58;16.38;;;;;;;18.71;75.09;99131.00;4726470;30;20052;-63
2021/08/30 07:39:43;;;;;;;24.65;16.70;;;;;;;18.79;75.03;99136.47;4732927;30;20382;-63
2021/08/30 07:42:09;;;;;;;24.60;15.85;;;;;;;18.69;75.32;99139.34;4715407;30;20104;-60
2021/08/30 07:44:35;;;;;;;26.13;16.92;;;;;;;18.69;75.65;99144.72;4732741;30;20044;-62
2021/08/30 07:47:01;;;;;;;23.50;15.40;;;;;;;18.48;75.16;99122.81;4715840;30;20105;-62
2021/08/30 07:49:27;;;;;;;23.80;16.27;;;;;;;18.59;75.65;99151.06;4730801;30;20060;-63
2021/08/30 07:51:53;;;;;;;24.20;16.05;;;;;;;18.57;75.91;99139.03;4730122;30;20393;-63
2021/08/30 07:54:18;;;;;;;27.80;16.63;;;;;;;18.60;76.09;99146.50;4729891;30;20301;-62
2021/08/30 07:56:44;;;;;;;25.75;16.58;;;;;;;18.57;75.89;99144.41;4728318;30;20055;-61
2021/08/30 07:59:10;;;;;;;24.80;17.13;;;;;;;18.52;75.67;99134.53;4729588;30;20053;-61
2021/08/30 08:01:36;;;;;;;26.67;17.52;;;;;;;18.59;75.65;99137.66;4730537;30;20052;-61
2021/08/30 08:04:02;;;;;;;28.63;17.15;;;;;;;18.60;75.89;99143.81;4729849;30;20056;-61
2021/08/30 08:06:28;;;;;;;25.08;16.35;;;;;;;18.64;75.74;99134.06;4729622;30;20135;-62
2021/08/30 08:08:54;;;;;;;23.63;16.10;;;;;;;18.65;75.35;99129.47;4731742;30;20163;-61
2021/08/30 08:11:20;;;;;;;24.20;15.93;;;;;;;18.66;75.10;99134.56;4713222;30;20060;-61
2021/08/30 08:13:56;;;;;;;30.48;15.77;;;;;;;18.68;75.18;99129.72;4715284;30;20053;-63
2021/08/30 08:16:23;;;;;;;23.17;15.38;;;;;;;18.72;74.79;99128.00;4715085;30;20115;-60
2021/08/30 08:18:52;;;;;;;29.63;17.10;;;;;;;18.74;74.74;99125.88;4701159;30;20060;-60
2021/08/30 08:21:22;;;;;;;22.83;15.35;;;;;;;18.69;75.45;99131.28;4730727;30;20064;-60
2021/08/30 08:23:48;;;;;;;25.67;16.30;;;;;;;18.68;75.79;99121.66;4731392;30;20542;-60
2021/08/30 08:26:14;;;;;;;31.33;17.13;;;;;;;18.66;75.03;99113.09;4727766;30;20508;-61
2021/08/30 08:28:40;;;;;;;27.60;16.25;;;;;;;18.58;75.42;99113.78;4715496;30;20056;-62
2021/08/30 08:31:06;;;;;;;30.75;18.92;;;;;;;18.48;76.32;99113.97;4731231;30;20419;-61
2021/08/30 08:33:31;;;;;;;28.67;17.77;;;;;;;18.50;76.60;99120.66;4730187;30;20049;-61
2021/08/30 08:35:57;;;;;;;32.53;19.35;;;;;;;18.53;76.52;99112.00;4727965;30;20056;-63
2021/08/30 08:38:23;;;;;;;29.52;17.35;;;;;;;18.61;76.18;99111.28;4726133;30;20142;-60
2021/08/30 08:40:51;;;;;;;31.98;18.50;;;;;;;18.63;76.51;99107.53;4746192;30;20045;-63
2021/08/30 08:43:18;;;;;;;28.73;17.83;;;;;;;18.74;76.15;99107.06;4700927;30;20048;-61
2021/08/30 08:45:46;;;;;;;32.08;18.67;;;;;;;18.91;75.10;99105.66;4742424;30;20056;-63
2021/08/30 08:48:12;;;;;;;26.58;18.20;;;;;;;19.07;74.61;99101.59;4729542;30;20052;-61
2021/08/30 08:50:38;;;;;;;28.95;17.08;;;;;;;19.27;74.08;99093.09;4731042;30;20086;-62
2021/08/30 08:53:05;;;;;;;33.83;17.60;;;;;;;19.39;74.05;99102.53;4746234;30;20066;-61
2021/08/30 08:55:34;;;;;;;30.50;18.67;;;;;;;19.37;73.80;99100.13;4730513;30;20052;-60
2021/08/30 08:58:17;;;;;;;34.28;20.00;;;;;;;19.46;73.78;99100.22;4732700;30;20044;-60
2021/08/30 09:00:45;;;;;;;37.08;19.83;;;;;;;19.45;74.02;99096.72;4731114;30;20059;-61
2021/08/30 09:03:16;;;;;;;31.23;19.05;;;;;;;19.57;73.72;99093.50;4717298;30;20059;-61
2021/08/30 09:05:42;;;;;;;;;;;;;;;19.66;73.88;99094.41;4747490;30;20048;-62
2021/08/30 09:08:28;;;;;;;33.60;18.60;;;;;;;19.66;73.88;99097.09;4732566;30;20300;-62
2021/08/30 09:10:54;;;;;;;28.08;19.00;;;;;;;19.72;73.49;99090.50;4747956;30;20123;-61
2021/08/30 09:13:29;;;;;;;27.17;18.45;;;;;;;19.74;73.94;99085.63;4752829;30;20480;-62
2021/08/30 09:15:57;;;;;;;32.72;19.08;;;;;;;19.80;74.20;99085.50;4736401;30;20531;-62
2021/08/30 09:18:27;;;;;;;30.85;19.33;;;;;;;19.78;73.07;99085.78;4735290;30;20303;-61
2021/08/30 09:20:53;;;;;;;34.08;19.30;;;;;;;19.82;72.61;99088.66;4730147;30;20052;-61
2021/08/30 09:23:19;;;;;;;35.60;19.08;;;;;;;19.85;72.42;99088.06;4734744;30;20401;-61
2021/08/30 09:25:45;;;;;;;29.60;19.35;;;;;;;19.97;71.96;99085.59;4751211;30;20049;-61
2021/08/30 09:28:12;;;;;;;31.23;20.05;;;;;;;20.05;71.76;99078.69;4750328;30;20106;-61
2021/08/30 09:30:38;;;;;;;30.73;20.63;;;;;;;20.22;71.54;99088.78;4733483;30;20047;-62
2021/08/30 09:33:04;;;;;;;34.88;21.10;;;;;;;20.22;71.89;99083.38;4749104;30;20048;-62
2021/08/30 09:35:30;;;;;;;30.95;20.73;;;;;;;20.18;71.87;99086.69;4719014;30;20060;-63
2021/08/30 09:37:55;;;;;;;35.15;21.67;;;;;;;20.21;72.05;99090.66;4734523;30;20084;-61
2021/08/30 09:40:24;;;;;;;31.63;20.15;;;;;;;20.24;71.97;99089.25;4719287;30;20055;-64
2021/08/30 09:42:52;;;;;;;32.92;21.42;;;;;;;20.39;71.04;99086.97;4734438;30;20135;-62
2021/08/30 09:45:20;;;;;;;31.42;20.95;;;;;;;20.63;70.03;99078.53;4750216;30;20110;-64
2021/08/30 09:47:56;;;;;;;29.98;20.48;;;;;;;20.81;69.21;99081.28;4733988;30;20115;-63
2021/08/30 09:50:31;;;;;;;28.38;20.48;;;;;;;21.04;68.25;99084.69;4750822;30;20538;-62
2021/08/30 09:52:59;;;;;;;30.10;20.08;;;;;;;21.15;68.00;99088.66;4749527;30;20048;-61
2021/08/30 09:55:26;;;;;;;35.50;20.45;;;;;;;21.30;67.25;99088.22;4734148;30;20079;-61
2021/08/30 09:57:53;;;;;;;31.23;19.77;;;;;;;21.38;67.21;99088.56;4733520;30;20410;-61
2021/08/30 10:00:20;;;;;;;26.65;19.42;;;;;;;21.36;67.41;99091.59;4749554;30;20056;-61
2021/08/30 10:02:50;;;;;;;29.67;19.98;;;;;;;21.33;67.51;99086.78;4728288;30;20048;-63
2021/08/30 10:05:16;;;;;;;31.17;20.47;;;;;;;21.30;67.15;99080.13;4733336;30;20143;-61
2021/08/30 10:07:45;;;;;;;32.60;20.85;;;;;;;21.33;67.63;99070.63;4746026;30;20593;-63
2021/08/30 10:10:12;;;;;;;38.03;20.75;;;;;;;21.42;66.82;99078.75;4731224;30;20102;-62
2021/08/30 10:12:39;;;;;;;31.58;20.00;;;;;;;21.57;67.14;99088.25;4715178;30;20055;-63
2021/08/30 10:15:06;;;;;;;29.30;19.52;;;;;;;21.75;66.61;99089.84;4748058;30;20052;-63
2021/08/30 10:17:32;;;;;;;29.33;19.05;;;;;;;21.97;65.12;99095.06;4749241;30;20396;-62
2021/08/30 10:20:00;;;;;;;29.05;19.70;;;;;;;22.15;63.90;99100.44;4718451;30;20052;-62
2021/08/30 10:22:27;;;;;;;29.98;19.98;;;;;;;22.27;63.49;99110.59;4748922;30;20055;-62
2021/08/30 10:24:53;;;;;;;29.85;18.65;;;;;;;22.32;63.57;99102.31;4749597;30;20102;-63
2021/08/30 10:27:34;;;;;;;28.80;19.42;;;;;;;22.32;63.04;99113.88;4733781;30;20174;-62
2021/08/30 10:30:11;;;;;;;29.75;19.48;;;;;;;22.32;63.54;99110.41;4749087;30;20447;-63
2021/08/30 10:32:40;;;;;;;32.22;19.23;;;;;;;22.30;64.15;99110.75;4749779;30;20109;-62
2021/08/30 10:35:16;;;;;;;32.15;20.42;;;;;;;22.29;63.30;99117.22;4748800;30;20055;-62
2021/08/30 10:37:51;;;;;;;30.58;19.40;;;;;;;22.36;63.61;99128.34;4749985;30;20062;-62
2021/08/30 10:40:19;;;;;;;30.63;20.48;;;;;;;22.47;63.19;99117.97;4732631;30;20060;-63
2021/08/30 10:43:13;;;;;;;27.58;19.05;;;;;;;22.51;63.60;99124.34;4749512;30;20048;-63
2021/08/30 10:45:59;;;;;;;32.60;21.05;;;;;;;22.48;63.01;99127.69;4735061;30;20598;-63
2021/08/30 10:48:39;;;;;;;27.67;19.70;;;;;;;22.45;62.73;99126.41;4748389;30;20052;-63
2021/08/30 10:51:17;;;;;;;31.85;20.63;;;;;;;22.41;63.75;99124.66;4732408;30;20056;-63
2021/08/30 10:54:06;;;;;;;33.92;21.50;;;;;;;22.36;63.30;99124.88;4748089;30;20056;-63
2021/08/30 10:56:33;;;;;;;32.43;20.87;;;;;;;22.28;63.44;99115.66;4748768;30;20056;-64
2021/08/30 10:59:06;;;;;;;30.50;20.20;;;;;;;22.19;64.27;99107.56;4749563;30;20116;-63
2021/08/30 11:01:53;;;;;;;33.90;20.77;;;;;;;22.08;63.67;99110.91;4735582;30;20058;-63
2021/08/30 11:04:31;;;;;;;31.05;22.00;;;;;;;22.08;64.17;99109.00;4749349;30;20066;-63
2021/08/30 11:06:57;;;;;;;38.22;22.27;;;;;;;22.04;64.27;99115.38;4718458;30;20040;-62
2021/08/30 11:09:23;;;;;;;36.63;22.83;;;;;;;22.04;65.03;99123.47;4733147;30;20118;-62
2021/08/30 11:11:51;;;;;;;34.95;22.05;;;;;;;22.05;65.14;99122.34;4750038;30;20063;-63
2021/08/30 11:14:18;;;;;;;32.65;21.50;;;;;;;22.10;64.69;99124.88;4749188;30;20056;-61
2021/08/30 11:16:44;;;;;;;34.00;20.30;;;;;;;22.18;64.64;99122.19;4762624;30;20059;-62
2021/08/30 11:19:12;;;;;;;31.00;21.60;;;;;;;22.16;64.17;99102.78;4763395;30;20056;-61
2021/08/30 11:21:47;;;;;;;33.40;21.30;;;;;;;22.33;63.99;99110.09;4734838;30;20533;-63
2021/08/30 11:24:25;;;;;;;32.03;20.75;;;;;;;22.46;63.90;99108.28;4750230;30;20056;-63